Time;durP1;ratioP1;P1;durP2;ratioP2;P2;SDS_P1;SDS_P2;PMS_P1;PMS_P2;Temp;Humidity;BMP_temperature;BMP_pressure;BME280_temperature;BME280_humidity;BME280_pressure;Samples;Min_cycle;Max_cycle;Signal;HPM_P1;HPM_P2
2021/12/01 00:01:36;;;;;;;13.50;11.03;;;14.40;88.30;;;;;;5186996;28;20500;-33
2021/12/01 00:04:07;;;;;;;10.93;9.70;;;14.40;88.50;;;;;;5186741;28;20056;-34
2021/12/01 00:06:38;;;;;;;12.57;10.80;;;14.40;88.30;;;;;;5186976;28;20041;-30
2021/12/01 00:09:09;;;;;;;12.17;10.17;;;14.40;88.00;;;;;;5187031;28;20057;-34
2021/12/01 00:11:40;;;;;;;14.27;11.20;;;14.50;87.60;;;;;;5187106;28;20533;-31
2021/12/01 00:14:11;;;;;;;14.87;12.30;;;14.50;87.40;;;;;;5187001;28;20558;-34
2021/12/01 00:16:42;;;;;;;14.17;12.13;;;14.40;87.20;;;;;;5186743;28;20120;-31
2021/12/01 00:19:13;;;;;;;15.30;12.33;;;14.50;87.20;;;;;;5186713;28;20125;-31
2021/12/01 00:21:44;;;;;;;15.87;12.27;;;14.50;87.30;;;;;;5187014;28;20187;-33
2021/12/01 00:24:15;;;;;;;16.10;12.53;;;14.50;87.10;;;;;;5169596;28;20376;-31
2021/12/01 00:26:47;;;;;;;13.07;11.30;;;14.50;87.10;;;;;;5169117;28;20132;-33
2021/12/01 00:29:18;;;;;;;15.40;11.83;;;14.50;87.60;;;;;;5186746;28;20396;-31
2021/12/01 00:31:49;;;;;;;14.10;11.80;;;14.50;87.00;;;;;;5186754;28;20057;-31
2021/12/01 00:34:20;;;;;;;13.43;11.13;;;14.50;87.10;;;;;;5186636;28;20041;-33
2021/12/01 00:36:51;;;;;;;16.77;13.03;;;14.50;87.00;;;;;;5186692;28;20095;-31
2021/12/01 00:39:22;;;;;;;18.77;14.80;;;14.50;87.10;;;;;;5169604;28;20117;-31
2021/12/01 00:41:55;;;;;;;13.80;12.20;;;14.50;87.20;;;;;;5152035;28;20149;-31
2021/12/01 00:44:29;;;;;;;;;;;14.50;87.30;;;;;;5187219;28;20050;-31
2021/12/01 00:49:34;;;;;;;14.53;11.37;;;14.50;87.10;;;;;;5169499;28;20052;-31
2021/12/01 00:52:05;;;;;;;15.97;12.53;;;14.50;87.40;;;;;;5168986;28;20045;-34
2021/12/01 00:54:36;;;;;;;51.83;33.63;;;14.60;87.40;;;;;;5137425;28;20041;-34
2021/12/01 00:57:07;;;;;;;39.20;25.07;;;14.60;87.40;;;;;;5185862;28;20049;-31
2021/12/01 00:59:38;;;;;;;33.70;21.30;;;14.60;87.30;;;;;;5172965;28;20071;-31
2021/12/01 01:02:09;;;;;;;14.93;13.03;;;14.60;87.30;;;;;;5190383;28;20073;-31
2021/12/01 01:04:40;;;;;;;16.40;13.57;;;14.60;87.40;;;;;;5190271;28;20049;-31
2021/12/01 01:07:11;;;;;;;17.50;12.07;;;14.60;87.50;;;;;;5190221;28;20472;-31
2021/12/01 01:09:43;;;;;;;25.23;16.57;;;14.50;87.70;;;;;;5190717;28;20459;-31
2021/12/01 01:18:05;;;;;;;22.10;16.00;;;14.60;88.40;;;;;;5174534;28;20497;-33
2021/12/01 01:20:36;;;;;;;13.43;11.57;;;14.60;88.30;;;;;;5173268;28;20073;-32
2021/12/01 01:23:07;;;;;;;13.30;11.50;;;14.60;88.20;;;;;;5190271;28;20096;-31
2021/12/01 01:25:38;;;;;;;15.27;12.10;;;14.60;88.20;;;;;;5190106;28;20048;-31
2021/12/01 01:28:09;;;;;;;11.30;10.00;;;14.60;88.10;;;;;;5190165;28;20046;-31
2021/12/01 01:30:41;;;;;;;12.40;9.73;;;14.60;88.20;;;;;;5172461;28;20152;-34
2021/12/01 01:33:11;;;;;;;14.93;12.00;;;14.60;88.10;;;;;;5190252;28;20065;-31
2021/12/01 01:35:43;;;;;;;15.63;12.40;;;14.60;88.00;;;;;;5172697;28;20484;-32
2021/12/01 01:38:13;;;;;;;13.13;10.80;;;14.60;88.10;;;;;;5189955;28;20073;-31
2021/12/01 01:40:45;;;;;;;15.50;13.10;;;14.60;88.10;;;;;;5190277;28;20068;-34
2021/12/01 01:43:16;;;;;;;16.60;12.37;;;14.60;88.10;;;;;;5172320;28;20058;-31
2021/12/01 01:45:47;;;;;;;12.03;10.03;;;14.60;88.10;;;;;;5172333;28;20385;-31
2021/12/01 01:48:22;;;;;;;12.47;9.47;;;14.60;88.00;;;;;;5172184;28;20045;-32
2021/12/01 01:50:53;;;;;;;11.07;8.80;;;14.60;88.60;;;;;;5173235;28;20053;-31
2021/12/01 01:53:25;;;;;;;12.77;9.43;;;14.60;88.00;;;;;;5189488;28;20052;-31
2021/12/01 01:56:01;;;;;;;15.68;11.85;;;14.60;88.00;;;;;;5189464;28;20038;-31
2021/12/01 01:58:32;;;;;;;9.07;7.77;;;14.60;87.90;;;;;;5188869;28;20050;-31
2021/12/01 02:01:08;;;;;;;10.13;8.20;;;14.60;87.90;;;;;;5171282;28;20046;-31
2021/12/01 02:03:41;;;;;;;8.23;7.10;;;14.60;87.90;;;;;;5189079;28;20048;-31
2021/12/01 02:06:13;;;;;;;15.77;11.98;;;14.60;87.90;;;;;;5171636;28;20037;-32
2021/12/01 02:08:45;;;;;;;10.77;8.83;;;14.60;87.80;;;;;;5188667;28;20065;-31
2021/12/01 02:11:17;;;;;;;16.98;13.90;;;14.70;87.70;;;;;;5187806;28;20054;-34
2021/12/01 02:13:48;;;;;;;15.23;13.27;;;14.60;87.60;;;;;;5188857;28;20392;-32
2021/12/01 02:16:20;;;;;;;11.17;10.00;;;14.60;87.40;;;;;;5171054;28;20085;-31
2021/12/01 02:18:51;;;;;;;11.80;9.93;;;14.70;87.40;;;;;;5171721;28;20041;-31
2021/12/01 02:21:29;;;;;;;11.03;8.63;;;14.70;87.20;;;;;;5188495;28;20042;-34
2021/12/01 02:24:10;;;;;;;12.80;9.30;;;14.70;87.20;;;;;;5188717;28;20115;-31
2021/12/01 02:26:44;;;;;;;10.07;8.17;;;14.70;87.20;;;;;;5188805;28;20396;-32
2021/12/01 02:29:16;;;;;;;12.27;10.23;;;14.70;87.20;;;;;;5172110;28;20050;-31
2021/12/01 02:31:48;;;;;;;8.75;6.85;;;14.60;87.50;;;;;;5187890;28;20125;-31
2021/12/01 02:34:22;;;;;;;11.23;7.13;;;14.60;87.60;;;;;;5188020;28;20513;-32
2021/12/01 02:36:57;;;;;;;11.83;6.83;;;14.60;87.70;;;;;;5171116;28;20052;-31
2021/12/01 02:39:28;;;;;;;10.00;6.97;;;14.70;87.60;;;;;;5171353;28;20547;-31
2021/12/01 02:42:00;;;;;;;7.10;5.87;;;14.70;87.40;;;;;;5187981;28;20140;-31
2021/12/01 02:44:31;;;;;;;7.37;5.80;;;14.70;87.20;;;;;;5188025;28;20042;-32
2021/12/01 02:47:03;;;;;;;9.53;7.07;;;14.70;87.10;;;;;;5170487;28;20092;-31
2021/12/01 02:49:34;;;;;;;9.93;7.57;;;14.70;87.10;;;;;;5171080;28;20098;-32
2021/12/01 02:52:06;;;;;;;7.50;5.73;;;14.70;87.50;;;;;;5188037;28;20046;-31
2021/12/01 02:54:37;;;;;;;5.93;4.00;;;14.70;87.00;;;;;;5170360;28;20042;-32
2021/12/01 02:57:08;;;;;;;10.90;5.60;;;14.70;86.70;;;;;;5188179;28;20046;-35
2021/12/01 02:59:39;;;;;;;8.73;4.90;;;14.70;86.70;;;;;;5188057;28;20494;-31
2021/12/01 03:02:11;;;;;;;9.53;5.17;;;14.70;86.40;;;;;;5187666;28;20048;-32
2021/12/01 03:04:42;;;;;;;7.83;4.90;;;14.70;86.20;;;;;;5187478;28;20399;-34
2021/12/01 03:07:13;;;;;;;29.00;25.93;;;14.70;86.20;;;;;;5169649;28;20403;-33
2021/12/01 03:09:44;;;;;;;28.10;25.30;;;14.70;86.00;;;;;;5170007;28;20112;-32
2021/12/01 03:12:15;;;;;;;18.63;16.87;;;14.70;85.70;;;;;;5187553;28;20125;-32
2021/12/01 03:14:46;;;;;;;9.67;8.00;;;14.70;85.50;;;;;;5187614;28;20436;-32
2021/12/01 03:17:17;;;;;;;8.00;6.23;;;14.70;85.30;;;;;;5187630;28;20103;-32
2021/12/01 03:19:48;;;;;;;9.87;6.57;;;14.70;85.40;;;;;;5187477;28;20042;-32
2021/12/01 03:22:19;;;;;;;14.30;8.57;;;14.70;85.20;;;;;;5187213;28;20054;-33
2021/12/01 03:24:50;;;;;;;5.20;3.53;;;14.70;85.00;;;;;;5187412;28;20048;-32
2021/12/01 03:27:21;;;;;;;7.67;4.67;;;14.70;84.70;;;;;;5187446;28;20064;-34
2021/12/01 03:29:52;;;;;;;10.37;6.57;;;14.70;84.60;;;;;;5187245;28;20046;-31
2021/12/01 03:32:23;;;;;;;15.83;8.27;;;14.70;84.60;;;;;;5187394;28;20054;-32
2021/12/01 03:34:54;;;;;;;19.00;10.97;;;14.70;84.30;;;;;;5187116;28;20402;-31
2021/12/01 03:37:25;;;;;;;21.30;11.97;;;14.70;84.10;;;;;;5169968;28;20066;-31
2021/12/01 03:39:58;;;;;;;14.57;8.40;;;14.70;83.90;;;;;;5169821;28;20069;-31
2021/12/01 03:42:30;;;;;;;6.85;4.45;;;14.70;83.80;;;;;;5186949;28;20065;-32
2021/12/01 03:45:00;;;;;;;5.63;3.77;;;14.70;83.50;;;;;;5187175;28;20445;-32
2021/12/01 03:47:32;;;;;;;6.33;4.50;;;14.70;83.50;;;;;;5186779;28;20491;-33
2021/12/01 03:50:03;;;;;;;5.73;3.90;;;14.70;83.80;;;;;;5168758;28;20117;-33
2021/12/01 03:52:35;;;;;;;5.13;3.90;;;14.70;83.20;;;;;;5185917;28;20091;-31
2021/12/01 03:55:06;;;;;;;5.73;4.30;;;14.70;83.10;;;;;;5186642;28;20405;-32
2021/12/01 03:57:38;;;;;;;6.80;4.50;;;14.70;83.00;;;;;;5185895;28;20050;-31
2021/12/01 04:00:11;;;;;;;10.97;9.10;;;14.70;82.70;;;;;;5186589;28;20046;-31
2021/12/01 04:02:42;;;;;;;8.05;6.50;;;14.70;82.60;;;;;;5153279;28;20046;-31
2021/12/01 04:05:14;;;;;;;12.73;9.00;;;14.70;82.60;;;;;;5169827;28;20041;-32
2021/12/01 04:07:45;;;;;;;16.70;11.47;;;14.70;82.80;;;;;;5152318;28;20050;-32
2021/12/01 04:10:16;;;;;;;12.70;10.10;;;14.70;83.00;;;;;;5168600;28;20537;-32
2021/12/01 04:12:48;;;;;;;12.77;10.03;;;14.60;82.90;;;;;;5185614;28;20121;-31
2021/12/01 04:15:19;;;;;;;15.83;11.33;;;14.70;82.70;;;;;;5185820;28;20614;-34
2021/12/01 04:17:51;;;;;;;17.27;11.60;;;14.70;82.60;;;;;;5186343;28;20042;-31
2021/12/01 04:20:22;;;;;;;30.50;18.13;;;14.70;82.50;;;;;;5186495;28;20103;-32
2021/12/01 04:22:53;;;;;;;20.90;13.00;;;14.70;82.30;;;;;;5186328;28;20091;-31
2021/12/01 04:25:24;;;;;;;10.83;7.60;;;14.70;82.20;;;;;;5168130;28;20489;-32
2021/12/01 04:27:55;;;;;;;10.83;8.57;;;14.70;82.30;;;;;;5185852;28;20117;-35
2021/12/01 04:30:26;;;;;;;13.57;11.50;;;14.70;82.40;;;;;;5185375;28;20466;-31
2021/12/01 04:32:58;;;;;;;14.80;11.57;;;14.70;82.40;;;;;;5185602;28;20066;-34
2021/12/01 04:35:29;;;;;;;20.47;17.00;;;14.70;82.30;;;;;;5186040;28;20042;-31
2021/12/01 04:38:00;;;;;;;30.47;27.27;;;14.70;82.30;;;;;;5186027;28;20096;-32
2021/12/01 04:40:31;;;;;;;30.33;26.90;;;14.70;82.30;;;;;;5185871;28;20487;-34
2021/12/01 04:43:02;;;;;;;25.43;22.73;;;14.70;82.20;;;;;;5185117;28;20046;-34
2021/12/01 04:45:36;;;;;;;20.47;18.43;;;14.70;82.20;;;;;;5185302;28;20404;-32
2021/12/01 04:48:07;;;;;;;21.67;17.47;;;14.70;82.10;;;;;;5186418;28;20124;-32
2021/12/01 04:50:38;;;;;;;29.47;21.60;;;14.70;82.10;;;;;;5185839;28;20046;-32
2021/12/01 04:53:10;;;;;;;45.07;30.10;;;14.70;82.50;;;;;;5185863;28;20402;-34
2021/12/01 04:55:41;;;;;;;20.87;15.90;;;14.70;82.50;;;;;;5186049;28;20042;-32
2021/12/01 04:58:12;;;;;;;27.40;18.30;;;14.70;82.60;;;;;;5186117;28;20042;-34
2021/12/01 05:00:43;;;;;;;35.67;26.60;;;14.70;82.80;;;;;;5168311;28;20480;-33
2021/12/01 05:03:14;;;;;;;26.70;20.43;;;14.70;83.00;;;;;;5168598;28;20042;-31
2021/12/01 05:05:45;;;;;;;17.47;13.20;;;14.70;83.10;;;;;;5185752;28;20049;-32
2021/12/01 05:08:17;;;;;;;17.53;14.43;;;14.70;83.20;;;;;;5186117;28;20510;-32
2021/12/01 05:10:48;;;;;;;15.23;11.87;;;14.70;83.20;;;;;;5185394;28;20046;-33
2021/12/01 05:13:21;;;;;;;10.57;8.93;;;14.70;83.30;;;;;;5186116;28;20065;-31
2021/12/01 05:15:52;;;;;;;9.68;7.13;;;14.70;83.70;;;;;;5168744;28;20056;-32
2021/12/01 05:18:23;;;;;;;10.63;8.80;;;14.80;83.50;;;;;;5185840;28;20044;-32
2021/12/01 05:20:54;;;;;;;10.07;8.07;;;14.80;83.50;;;;;;5184852;28;20472;-33
2021/12/01 05:23:25;;;;;;;11.60;8.27;;;14.70;83.40;;;;;;5186135;28;20472;-32
2021/12/01 05:25:56;;;;;;;9.87;7.33;;;14.70;83.40;;;;;;5185811;28;20056;-32
2021/12/01 05:28:27;;;;;;;12.37;8.13;;;14.70;83.50;;;;;;5186159;28;20045;-32
2021/12/01 05:30:58;;;;;;;12.53;8.80;;;14.80;83.40;;;;;;5185602;28;20045;-34
2021/12/01 05:33:29;;;;;;;13.23;9.63;;;14.80;83.10;;;;;;5185752;28;20053;-31
2021/12/01 05:36:00;;;;;;;15.13;12.53;;;14.80;82.80;;;;;;5168182;28;20056;-32
2021/12/01 05:38:31;;;;;;;20.00;15.47;;;14.80;82.90;;;;;;5168586;28;20046;-31
2021/12/01 05:41:02;;;;;;;18.53;14.67;;;14.80;83.10;;;;;;5167623;28;20096;-34
2021/12/01 05:43:33;;;;;;;26.07;19.87;;;14.80;83.20;;;;;;5164065;28;20064;-31
2021/12/01 05:46:04;;;;;;;24.57;18.47;;;14.80;83.30;;;;;;5168211;28;20551;-35
2021/12/01 05:48:35;;;;;;;21.53;16.47;;;14.80;83.20;;;;;;5169237;28;20124;-32
2021/12/01 05:51:06;;;;;;;18.37;13.83;;;14.80;83.20;;;;;;5168092;28;20064;-31
2021/12/01 05:53:38;;;;;;;18.23;12.60;;;14.80;83.30;;;;;;5168445;28;20415;-32
2021/12/01 05:56:08;;;;;;;15.27;11.97;;;14.80;83.30;;;;;;5166626;28;20046;-31
2021/12/01 05:58:40;;;;;;;16.97;14.10;;;14.80;83.40;;;;;;5168620;28;20042;-31
2021/12/01 06:01:10;;;;;;;19.33;15.00;;;14.70;83.60;;;;;;5168946;28;20185;-31
2021/12/01 06:03:43;;;;;;;16.83;14.13;;;14.70;83.90;;;;;;5169260;28;20038;-30
2021/12/01 06:06:14;;;;;;;14.30;12.73;;;13.80;84.50;;;;;;5169259;28;20047;-30
2021/12/01 06:08:45;;;;;;;15.43;12.87;;;12.10;88.90;;;;;;5167971;28;20046;-31
2021/12/01 06:11:16;;;;;;;15.63;12.80;;;11.20;90.80;;;;;;5169399;28;20048;-31
2021/12/01 06:13:50;;;;;;;12.93;10.93;;;10.70;91.60;;;;;;5167820;28;20428;-31
2021/12/01 06:16:22;;;;;;;14.53;11.47;;;10.40;91.90;;;;;;5169075;28;20096;-31
2021/12/01 06:18:53;;;;;;;12.23;10.13;;;10.20;92.20;;;;;;5165474;28;20078;-31
2021/12/01 06:21:24;;;;;;;12.63;10.67;;;10.10;92.30;;;;;;5167135;28;20109;-31
2021/12/01 06:23:55;;;;;;;12.00;9.10;;;9.90;92.40;;;;;;5168858;28;20048;-31
2021/12/01 06:26:26;;;;;;;11.80;8.93;;;9.80;92.60;;;;;;5168644;28;20074;-31
2021/12/01 06:28:57;;;;;;;10.73;8.60;;;9.80;92.70;;;;;;5168756;28;20515;-31
2021/12/01 06:31:28;;;;;;;10.33;7.57;;;9.70;92.70;;;;;;5151192;28;20053;-31
2021/12/01 06:34:00;;;;;;;14.10;11.80;;;9.60;93.00;;;;;;5151008;28;20104;-30
2021/12/01 06:36:31;;;;;;;11.97;10.70;;;9.60;93.10;;;;;;5168620;28;20051;-30
2021/12/01 06:39:03;;;;;;;13.73;12.00;;;9.60;93.20;;;;;;5168517;28;20403;-30
2021/12/01 06:41:34;;;;;;;13.50;12.17;;;9.60;93.30;;;;;;5167701;28;20129;-30
2021/12/01 06:44:06;;;;;;;18.07;14.67;;;9.70;93.20;;;;;;5192180;28;20478;-31
2021/12/01 06:46:37;;;;;;;23.97;18.60;;;9.70;93.20;;;;;;5191535;28;20091;-29
2021/12/01 06:49:08;;;;;;;14.70;12.63;;;9.70;93.30;;;;;;5208767;28;20065;-29
2021/12/01 06:51:39;;;;;;;11.23;9.00;;;9.70;93.10;;;;;;5208979;28;20080;-30
2021/12/01 06:54:12;;;;;;;9.90;7.70;;;9.80;93.10;;;;;;5209252;28;20175;-30
2021/12/01 06:56:43;;;;;;;11.27;9.80;;;9.80;93.00;;;;;;5175217;28;20132;-30
2021/12/01 06:59:14;;;;;;;13.43;10.47;;;9.80;93.00;;;;;;5208927;28;20473;-31
2021/12/01 07:01:45;;;;;;;15.90;12.97;;;9.90;93.10;;;;;;5209422;28;20049;-30
2021/12/01 07:04:16;;;;;;;17.63;15.73;;;9.80;93.00;;;;;;5208855;28;20530;-30
2021/12/01 07:06:47;;;;;;;22.57;19.73;;;9.80;93.10;;;;;;5208603;28;20136;-30
2021/12/01 07:09:36;;;;;;;17.47;13.93;;;9.80;93.10;;;;;;5209011;28;20040;-29
2021/12/01 07:12:08;;;;;;;24.37;19.73;;;9.80;93.40;;;;;;5208706;28;20103;-30
2021/12/01 07:14:39;;;;;;;19.17;14.80;;;9.70;93.40;;;;;;5208679;28;20486;-30
2021/12/01 07:17:10;;;;;;;36.93;24.20;;;9.70;93.70;;;;;;5208571;28;20083;-30
2021/12/01 07:19:41;;;;;;;21.07;16.90;;;9.70;93.70;;;;;;5190779;28;20510;-30
2021/12/01 07:22:12;;;;;;;20.00;15.03;;;9.80;93.70;;;;;;5208678;28;20064;-30
2021/12/01 07:24:44;;;;;;;45.77;26.30;;;9.80;93.70;;;;;;5208404;28;20041;-30
2021/12/01 07:27:15;;;;;;;15.97;13.07;;;9.70;93.70;;;;;;5190722;28;20042;-30
2021/12/01 07:29:46;;;;;;;17.63;15.13;;;9.70;93.70;;;;;;5208289;28;20406;-30
2021/12/01 07:32:17;;;;;;;32.67;28.80;;;9.70;93.90;;;;;;5207679;28;20121;-30
2021/12/01 07:34:48;;;;;;;18.63;16.23;;;9.60;93.90;;;;;;5208111;28;20088;-31
2021/12/01 07:37:19;;;;;;;16.63;13.83;;;9.60;94.10;;;;;;5208182;28;20495;-31
2021/12/01 07:39:51;;;;;;;15.50;13.13;;;9.60;94.00;;;;;;5208120;28;20080;-31
2021/12/01 07:42:28;;;;;;;15.93;13.10;;;9.60;94.10;;;;;;5207552;28;20061;-30
2021/12/01 07:45:05;;;;;;;17.37;14.83;;;9.60;94.20;;;;;;5207637;28;20049;-31
2021/12/01 07:47:36;;;;;;;19.67;16.00;;;9.60;94.30;;;;;;5174111;28;20099;-30
2021/12/01 07:50:08;;;;;;;26.23;21.50;;;9.50;94.50;;;;;;5207524;28;20423;-30
2021/12/01 07:52:39;;;;;;;22.90;20.20;;;9.50;94.50;;;;;;5207863;28;20491;-30
2021/12/01 07:55:10;;;;;;;17.47;14.43;;;9.60;94.90;;;;;;5207728;28;20083;-30
2021/12/01 07:57:42;;;;;;;19.00;16.87;;;9.60;94.80;;;;;;5190171;28;20476;-30
2021/12/01 08:00:14;;;;;;;18.50;16.60;;;9.50;95.10;;;;;;5190195;28;20124;-30
2021/12/01 08:02:45;;;;;;;16.63;14.90;;;9.60;95.00;;;;;;5173305;28;20130;-30
2021/12/01 08:05:21;;;;;;;15.27;13.13;;;9.50;95.20;;;;;;5190067;28;20060;-30
2021/12/01 08:07:53;;;;;;;;;;;9.50;95.20;;;;;;5207146;28;20181;-30
2021/12/01 08:10:24;;;;;;;16.03;13.00;;;9.50;95.20;;;;;;5207501;28;19927;-30
2021/12/01 08:12:56;;;;;;;14.80;12.00;;;9.50;95.10;;;;;;5173702;28;20120;-30
2021/12/01 08:15:27;;;;;;;14.90;12.30;;;9.50;95.00;;;;;;5207525;28;20107;-31
2021/12/01 08:18:05;;;;;;;16.13;14.03;;;9.50;95.20;;;;;;5189902;28;20059;-30
2021/12/01 08:21:21;;;;;;;16.27;13.87;;;9.50;95.20;;;;;;5139179;28;20105;-30
2021/12/01 08:24:01;;;;;;;20.10;14.25;;;9.50;95.20;;;;;;5163925;28;20050;-30
2021/12/01 08:26:32;;;;;;;55.33;37.77;;;9.50;95.10;;;;;;5180560;28;20523;-30
2021/12/01 08:29:03;;;;;;;65.63;48.33;;;9.50;95.30;;;;;;5164326;28;20053;-31
2021/12/01 08:31:34;;;;;;;24.90;19.73;;;9.50;95.20;;;;;;5164705;28;20058;-30
2021/12/01 08:34:05;;;;;;;16.33;13.10;;;9.50;95.10;;;;;;5164398;28;20488;-30
2021/12/01 08:36:36;;;;;;;22.50;18.57;;;9.50;95.00;;;;;;5164324;28;20092;-30
2021/12/01 08:39:07;;;;;;;20.00;16.37;;;9.50;95.10;;;;;;5164357;28;20125;-30
2021/12/01 08:41:40;;;;;;;27.27;22.13;;;9.50;95.20;;;;;;5163942;28;20665;-31
2021/12/01 08:44:11;;;;;;;29.70;23.03;;;9.50;95.20;;;;;;5180843;28;20149;-30
2021/12/01 08:46:44;;;;;;;36.10;25.90;;;9.50;95.50;;;;;;5164206;28;21018;-30
2021/12/01 08:49:15;;;;;;;;;;;9.50;95.40;;;;;;5164723;28;20084;-30
2021/12/01 08:51:49;;;;;;;41.13;26.35;;;9.50;95.60;;;;;;5185117;28;20381;-30
2021/12/01 08:54:20;;;;;;;42.67;26.80;;;9.50;95.70;;;;;;5207251;28;20050;-30
2021/12/01 08:56:51;;;;;;;77.17;45.37;;;9.50;95.50;;;;;;5189392;28;20513;-31
2021/12/01 08:59:22;;;;;;;46.80;34.87;;;9.50;95.60;;;;;;5189738;28;20045;-30
2021/12/01 09:01:53;;;;;;;30.47;22.53;;;9.50;95.50;;;;;;5206697;28;20054;-31
2021/12/01 09:04:24;;;;;;;27.27;19.20;;;9.40;95.60;;;;;;5189529;28;20041;-31
2021/12/01 09:06:56;;;;;;;49.40;33.83;;;9.50;95.60;;;;;;5206448;28;20049;-30
2021/12/01 09:09:28;;;;;;;77.73;57.07;;;9.50;95.70;;;;;;5206974;28;20399;-30
2021/12/01 09:11:59;;;;;;;24.53;19.00;;;9.50;95.70;;;;;;5206557;28;20391;-30
2021/12/01 09:14:31;;;;;;;20.67;16.10;;;9.50;95.60;;;;;;5206551;28;20138;-30
2021/12/01 09:22:00;;;;;;;;;;;;;;;;;;;;;
2021/12/01 09:24:55;;;;;;;23.47;19.23;;;9.50;95.60;;;;;;5048600;29;20192;-30
2021/12/01 09:27:51;;;;;;;19.57;16.20;;;9.50;95.50;;;;;;5048809;29;20053;-30
2021/12/01 09:30:53;;;;;;;21.17;17.80;;;9.50;95.30;;;;;;5042497;29;20449;-30
2021/12/01 09:33:28;;;;;;;20.43;16.87;;;9.50;95.20;;;;;;5048877;29;20131;-31
2021/12/01 09:35:59;;;;;;;21.92;18.58;;;9.40;95.40;;;;;;5049223;29;20056;-30
2021/12/01 09:38:30;;;;;;;26.00;23.27;;;9.40;95.30;;;;;;5049551;29;20132;-30
2021/12/01 09:41:01;;;;;;;24.70;22.00;;;9.50;95.00;;;;;;5033483;29;20465;-30
2021/12/01 09:43:33;;;;;;;34.47;30.87;;;9.50;95.10;;;;;;5032836;29;20053;-30
2021/12/01 09:46:05;;;;;;;23.73;21.07;;;9.40;95.40;;;;;;5033394;29;20053;-30
2021/12/01 09:48:39;;;;;;;26.98;22.30;;;9.40;95.50;;;;;;5049059;29;20080;-30
2021/12/01 09:51:15;;;;;;;21.63;17.37;;;9.40;95.60;;;;;;5048628;29;20048;-30
2021/12/01 09:53:48;;;;;;;23.37;19.13;;;9.40;95.40;;;;;;5048700;29;20112;-31
2021/12/01 09:56:20;;;;;;;26.93;21.77;;;9.40;95.40;;;;;;5049560;29;20056;-30
2021/12/01 09:58:51;;;;;;;31.30;23.97;;;9.40;95.60;;;;;;5106500;29;20055;-30
2021/12/01 10:01:23;;;;;;;29.73;22.63;;;9.40;95.40;;;;;;5179732;28;20056;-30
2021/12/01 10:04:04;;;;;;;42.13;31.73;;;9.40;95.20;;;;;;5209945;28;20172;-30
2021/12/01 10:06:35;;;;;;;30.13;24.17;;;9.40;95.40;;;;;;5209989;28;20053;-30
2021/12/01 10:09:07;;;;;;;36.37;29.37;;;9.40;95.40;;;;;;5192941;28;20498;-30
2021/12/01 10:11:41;;;;;;;38.67;32.27;;;9.40;95.70;;;;;;5192519;28;20045;-30
2021/12/01 10:14:17;;;;;;;28.43;25.23;;;9.40;95.50;;;;;;5193039;28;20049;-30
2021/12/01 10:16:52;;;;;;;32.10;23.00;;;9.40;95.50;;;;;;5209720;28;20124;-30
2021/12/01 10:19:28;;;;;;;41.03;26.00;;;9.50;96.20;;;;;;5192420;28;20049;-30
2021/12/01 10:22:20;;;;;;;40.10;27.60;;;9.50;95.70;;;;;;5177963;28;20057;-30
2021/12/01 10:24:55;;;;;;;30.53;22.50;;;9.50;95.60;;;;;;5209477;28;20053;-30
2021/12/01 10:27:27;;;;;;;25.77;19.37;;;9.50;96.20;;;;;;5170294;28;20157;-30
2021/12/01 10:29:58;;;;;;;28.27;21.40;;;9.50;95.90;;;;;;5170258;28;20153;-30
2021/12/01 10:32:30;;;;;;;25.73;19.20;;;9.60;95.80;;;;;;5186397;28;20129;-30
2021/12/01 10:35:04;;;;;;;21.90;17.80;;;9.60;96.10;;;;;;5170643;28;20107;-30
2021/12/01 10:37:34;;;;;;;19.88;17.13;;;9.50;95.50;;;;;;5186729;28;20527;-30
2021/12/01 10:40:13;;;;;;;29.13;21.90;;;9.50;95.40;;;;;;5186868;28;20052;-30
2021/12/01 10:43:10;;;;;;;35.87;26.27;;;9.50;95.80;;;;;;5170039;28;20061;-30
2021/12/01 10:45:45;;;;;;;34.33;25.47;;;9.60;95.80;;;;;;5186750;28;20077;-30
2021/12/01 10:48:23;;;;;;;29.70;23.03;;;9.60;96.00;;;;;;5186568;28;20062;-30
2021/12/01 10:50:54;;;;;;;39.27;27.50;;;9.60;95.80;;;;;;5186419;28;20392;-30
2021/12/01 10:53:26;;;;;;;38.60;27.93;;;9.50;95.60;;;;;;5170427;28;20161;-31
2021/12/01 10:56:03;;;;;;;33.47;24.20;;;9.60;95.50;;;;;;5202881;28;20535;-30
2021/12/01 10:58:37;;;;;;;33.70;23.43;;;9.60;95.60;;;;;;5183154;28;20062;-30
2021/12/01 11:01:25;;;;;;;34.60;23.23;;;9.60;95.60;;;;;;5208776;28;20049;-30
2021/12/01 11:03:56;;;;;;;23.77;17.93;;;9.60;95.40;;;;;;5191909;28;20045;-30
2021/12/01 11:06:33;;;;;;;35.80;24.07;;;9.60;95.30;;;;;;5191266;28;20536;-30
2021/12/01 11:09:04;;;;;;;29.20;20.90;;;9.50;95.50;;;;;;5208656;28;20050;-30
2021/12/01 11:11:43;;;;;;;29.13;23.03;;;9.60;95.30;;;;;;5208362;28;20124;-30
2021/12/01 11:14:17;;;;;;;32.13;23.53;;;9.60;95.40;;;;;;5191417;28;20120;-30
2021/12/01 11:16:48;;;;;;;63.03;40.80;;;9.60;95.40;;;;;;5190998;28;20053;-30
2021/12/01 11:19:32;;;;;;;27.90;19.50;;;9.60;95.60;;;;;;5191167;28;20060;-30
2021/12/01 11:22:28;;;;;;;34.47;24.43;;;9.60;95.30;;;;;;5190923;28;20080;-30
2021/12/01 11:25:19;;;;;;;35.57;24.93;;;9.70;95.50;;;;;;5208439;28;20045;-30
2021/12/01 11:27:50;;;;;;;21.90;18.70;;;9.70;95.60;;;;;;5208363;28;20045;-30
2021/12/01 11:30:23;;;;;;;23.33;16.87;;;9.70;95.50;;;;;;5207970;28;20049;-30
2021/12/01 11:32:54;;;;;;;26.52;21.15;;;9.70;95.70;;;;;;5190604;28;20057;-30
2021/12/01 11:35:25;;;;;;;21.20;15.93;;;9.70;95.60;;;;;;5145382;28;20055;-30
2021/12/01 11:37:57;;;;;;;22.17;15.90;;;9.70;95.60;;;;;;5145057;28;20105;-30
2021/12/01 11:40:29;;;;;;;24.27;16.77;;;9.60;95.70;;;;;;5145086;28;20050;-30
2021/12/01 11:43:00;;;;;;;28.77;21.17;;;9.70;95.80;;;;;;5144591;28;20055;-30
2021/12/01 11:45:31;;;;;;;29.83;22.03;;;9.70;95.80;;;;;;5144970;28;20058;-30
2021/12/01 11:48:03;;;;;;;28.90;21.63;;;9.70;95.90;;;;;;5144207;28;20047;-31
2021/12/01 11:50:36;;;;;;;33.43;23.70;;;9.70;95.90;;;;;;5140886;28;20054;-30
2021/12/01 11:53:27;;;;;;;33.28;22.52;;;9.70;95.90;;;;;;5144330;28;20046;-30
2021/12/01 11:56:02;;;;;;;24.47;17.67;;;9.70;96.00;;;;;;5144656;28;20428;-30
2021/12/01 11:58:47;;;;;;;30.97;20.57;;;9.60;96.10;;;;;;5127997;28;20059;-30
2021/12/01 12:01:21;;;;;;;18.47;15.77;;;9.70;96.30;;;;;;5144383;28;20062;-31
2021/12/01 12:04:05;;;;;;;19.60;14.70;;;9.60;96.30;;;;;;5144694;28;20046;-30
2021/12/01 12:06:55;;;;;;;18.17;13.75;;;9.70;96.20;;;;;;5182325;28;20407;-30
2021/12/01 12:09:26;;;;;;;16.33;13.17;;;9.60;96.10;;;;;;5189713;28;20407;-30
2021/12/01 12:12:10;;;;;;;17.43;14.17;;;9.60;96.10;;;;;;5207499;28;20045;-31
2021/12/01 12:14:49;;;;;;;20.47;16.40;;;9.60;96.00;;;;;;5207477;28;20049;-30
2021/12/01 12:17:35;;;;;;;19.50;15.97;;;9.60;95.90;;;;;;5190483;28;20054;-30
2021/12/01 12:20:22;;;;;;;18.77;16.77;;;9.60;95.90;;;;;;5191643;28;20088;-30
2021/12/01 12:22:55;;;;;;;16.30;14.27;;;9.60;95.70;;;;;;5207395;28;20049;-31
2021/12/01 12:25:39;;;;;;;18.27;16.10;;;9.50;95.90;;;;;;5207231;28;20454;-30
2021/12/01 12:28:55;;;;;;;23.20;17.43;;;9.60;96.00;;;;;;5206897;28;20148;-30
2021/12/01 12:31:31;;;;;;;23.27;18.13;;;9.60;96.30;;;;;;5184611;28;20053;-31
2021/12/01 12:34:04;;;;;;;21.43;16.60;;;9.60;96.60;;;;;;5184329;28;20062;-31
2021/12/01 12:36:43;;;;;;;24.27;18.08;;;10.10;96.10;;;;;;5184265;28;20129;-31
2021/12/01 12:39:24;;;;;;;20.93;14.67;;;10.60;95.40;;;;;;5184482;28;20049;-31
2021/12/01 12:41:56;;;;;;;22.80;16.60;;;11.10;94.70;;;;;;5184251;28;20077;-31
2021/12/01 12:44:28;;;;;;;19.70;15.27;;;11.40;93.90;;;;;;5184568;28;20042;-31
2021/12/01 12:47:23;;;;;;;21.05;17.13;;;11.70;93.50;;;;;;5184189;28;20057;-31
2021/12/01 12:50:01;;;;;;;28.10;22.80;;;12.00;93.10;;;;;;5104204;29;20478;-31
2021/12/01 12:52:35;;;;;;;16.00;13.27;;;12.20;92.90;;;;;;5104364;29;20481;-31
2021/12/01 12:55:16;;;;;;;16.83;14.10;;;12.40;92.70;;;;;;5107176;29;20052;-31
2021/12/01 12:58:07;;;;;;;22.33;16.43;;;12.50;92.50;;;;;;5108341;29;20064;-31
2021/12/01 13:01:00;;;;;;;19.83;17.60;;;12.60;92.30;;;;;;5108171;29;20131;-31
2021/12/01 13:03:31;;;;;;;13.83;10.77;;;12.80;91.90;;;;;;5091127;29;20056;-31
2021/12/01 13:06:08;;;;;;;27.43;20.40;;;12.90;91.80;;;;;;5108107;29;20541;-31
2021/12/01 13:08:44;;;;;;;21.83;15.97;;;12.90;91.60;;;;;;5092435;29;20066;-31
2021/12/01 13:11:20;;;;;;;15.67;12.30;;;13.00;91.50;;;;;;5092221;29;20401;-31
2021/12/01 13:13:57;;;;;;;14.60;12.70;;;13.10;91.60;;;;;;5108069;29;20060;-31
2021/12/01 13:16:29;;;;;;;20.80;17.50;;;13.10;91.40;;;;;;5107832;29;20062;-31
2021/12/01 13:19:07;;;;;;;14.67;11.70;;;13.20;91.10;;;;;;5091505;29;20143;-31
2021/12/01 13:21:39;;;;;;;18.73;16.53;;;13.30;91.00;;;;;;5076501;29;20460;-31